createdAt,value
2024-03-16T00:02:04.826Z,16.63
2024-03-16T00:04:31.431Z,15.00
2024-03-16T00:06:59.211Z,10.73
2024-03-16T00:09:26.156Z,13.57
2024-03-16T00:11:52.907Z,19.50
2024-03-16T00:14:19.344Z,8.90
2024-03-16T00:16:45.830Z,10.07
2024-03-16T00:19:12.486Z,12.15
2024-03-16T00:21:39.014Z,16.63
2024-03-16T00:24:05.838Z,12.90
2024-03-16T00:26:32.332Z,13.95
2024-03-16T00:28:59.518Z,16.73
2024-03-16T00:31:26.087Z,13.43
2024-03-16T00:33:52.608Z,15.88
2024-03-16T00:36:19.062Z,9.77
2024-03-16T00:38:50.659Z,11.85
2024-03-16T00:41:21.233Z,14.60
2024-03-16T00:43:47.711Z,12.77
2024-03-16T00:46:14.390Z,18.00
2024-03-16T00:48:41.158Z,11.80
2024-03-16T00:51:07.626Z,13.82
2024-03-16T00:53:34.373Z,16.30
2024-03-16T00:56:00.935Z,15.25
2024-03-16T00:58:28.598Z,10.43
2024-03-16T01:00:55.187Z,16.67
2024-03-16T01:03:21.878Z,14.10
2024-03-16T01:05:57.491Z,15.73
2024-03-16T01:08:24.169Z,16.55
2024-03-16T01:10:55.965Z,15.88
2024-03-16T01:13:23.785Z,11.77
2024-03-16T01:15:51.111Z,15.55
2024-03-16T01:18:17.737Z,11.60
2024-03-16T01:20:45.181Z,12.90
2024-03-16T01:23:14.210Z,16.63
2024-03-16T01:25:41.239Z,16.43
2024-03-16T01:28:07.925Z,17.20
2024-03-16T01:30:34.589Z,14.90
2024-03-16T01:33:01.375Z,11.27
2024-03-16T01:35:27.891Z,17.73
2024-03-16T01:37:54.380Z,17.90
2024-03-16T01:40:25.947Z,16.52
2024-03-16T01:42:55.856Z,10.38
2024-03-16T01:45:22.599Z,24.48
2024-03-16T01:47:49.253Z,22.65
2024-03-16T01:50:24.861Z,13.90
2024-03-16T01:52:51.460Z,11.30
2024-03-16T01:55:18.592Z,19.52
2024-03-16T01:57:45.778Z,13.13
2024-03-16T02:00:13.288Z,9.95
2024-03-16T02:02:40.455Z,17.03
2024-03-16T02:05:08.571Z,16.15
2024-03-16T02:07:38.177Z,12.98
2024-03-16T02:10:06.911Z,8.07
2024-03-16T02:12:33.599Z,8.88
2024-03-16T02:15:00.829Z,7.47
2024-03-16T02:17:28.625Z,9.40
2024-03-16T02:19:55.481Z,3.60
2024-03-16T02:22:22.009Z,4.00
2024-03-16T02:24:48.689Z,4.80
2024-03-16T02:27:16.025Z,4.43
2024-03-16T02:29:43.401Z,7.22
2024-03-16T02:32:11.125Z,3.80
2024-03-16T02:34:38.531Z,6.47
2024-03-16T02:37:06.053Z,6.25
2024-03-16T02:39:35.223Z,8.10
2024-03-16T02:42:03.610Z,5.03
2024-03-16T02:44:31.135Z,4.95
2024-03-16T02:46:58.279Z,2.85
2024-03-16T02:49:25.297Z,8.02
2024-03-16T02:51:51.858Z,2.93
2024-03-16T02:54:19.068Z,6.50
2024-03-16T02:56:46.478Z,4.18
2024-03-16T02:59:14.130Z,7.53
2024-03-16T03:01:40.899Z,2.45
2024-03-16T03:04:08.720Z,2.47
2024-03-16T03:06:35.673Z,5.32
2024-03-16T03:09:02.555Z,3.67
2024-03-16T03:11:29.328Z,3.33
2024-03-16T03:13:56.399Z,2.63
2024-03-16T03:16:25.102Z,4.23
2024-03-16T03:18:52.334Z,3.88
2024-03-16T03:21:19.014Z,4.68
2024-03-16T03:23:46.072Z,4.35
2024-03-16T03:26:12.645Z,3.97
2024-03-16T03:28:39.175Z,6.93
2024-03-16T03:31:07.685Z,6.63
2024-03-16T03:33:34.925Z,4.65
2024-03-16T03:36:03.841Z,4.50
2024-03-16T03:38:31.216Z,3.63
2024-03-16T03:40:59.073Z,3.83
2024-03-16T03:43:25.972Z,5.93
2024-03-16T03:45:58.578Z,3.78
2024-03-16T03:48:25.220Z,2.33
2024-03-16T03:50:57.547Z,1.70
2024-03-16T03:53:26.073Z,3.70
2024-03-16T03:55:52.685Z,5.07
2024-03-16T03:58:22.917Z,4.25
2024-03-16T04:00:50.607Z,5.18
2024-03-16T04:03:17.414Z,2.95
2024-03-16T04:05:46.761Z,5.93
2024-03-16T04:08:13.268Z,4.32
2024-03-16T04:10:40.309Z,2.45
2024-03-16T04:13:06.848Z,3.63
2024-03-16T04:15:33.554Z,3.28
2024-03-16T04:18:00.242Z,2.03
2024-03-16T04:20:26.890Z,4.45
2024-03-16T04:22:53.428Z,3.60
2024-03-16T04:25:20.050Z,2.17
2024-03-16T04:27:46.645Z,4.28
2024-03-16T04:30:14.572Z,4.73
2024-03-16T04:32:41.201Z,2.92
2024-03-16T04:35:08.614Z,3.08
2024-03-16T04:37:35.180Z,5.38
2024-03-16T04:40:04.673Z,2.97
2024-03-16T04:42:31.768Z,5.47
2024-03-16T04:44:58.334Z,5.13
2024-03-16T04:47:24.906Z,3.40
2024-03-16T04:49:51.449Z,3.22
2024-03-16T04:52:18.123Z,3.38
2024-03-16T04:54:44.719Z,5.23
2024-03-16T04:57:11.161Z,2.08
2024-03-16T04:59:37.700Z,3.10
2024-03-16T05:02:04.404Z,1.90
2024-03-16T05:04:30.969Z,4.90
2024-03-16T05:06:57.451Z,4.07
2024-03-16T05:09:24.495Z,7.50
2024-03-16T05:11:51.104Z,5.20
2024-03-16T05:14:17.642Z,7.70
2024-03-16T05:16:44.151Z,5.38
2024-03-16T05:19:10.762Z,1.97
2024-03-16T05:21:37.344Z,4.75
2024-03-16T05:24:07.019Z,7.22
2024-03-16T05:26:35.256Z,2.97
2024-03-16T05:29:01.856Z,5.55
2024-03-16T05:31:28.609Z,3.33
2024-03-16T05:33:55.267Z,8.60
2024-03-16T05:36:21.757Z,7.72
2024-03-16T05:38:48.213Z,5.82
2024-03-16T05:41:15.266Z,2.97
2024-03-16T05:43:45.605Z,5.93
2024-03-16T05:46:12.562Z,5.22
2024-03-16T05:48:39.345Z,4.65
2024-03-16T05:51:08.661Z,2.28
2024-03-16T05:53:35.194Z,2.67
2024-03-16T05:56:01.842Z,1.37
2024-03-16T05:58:29.812Z,5.45
2024-03-16T06:00:57.864Z,3.22
2024-03-16T06:03:27.299Z,6.00
2024-03-16T06:05:54.031Z,8.00
2024-03-16T06:08:20.589Z,6.07
2024-03-16T06:10:48.886Z,3.58
2024-03-16T06:13:16.387Z,1.85
2024-03-16T06:15:43.191Z,4.05
2024-03-16T06:18:09.847Z,4.03
2024-03-16T06:20:36.373Z,5.00
2024-03-16T06:23:02.862Z,2.80
2024-03-16T06:25:30.632Z,3.15
2024-03-16T06:28:06.879Z,4.35
2024-03-16T06:30:34.207Z,2.80
2024-03-16T06:33:07.221Z,2.70
2024-03-16T06:35:34.586Z,3.20
2024-03-16T06:38:01.227Z,3.03
2024-03-16T06:40:27.830Z,4.47
2024-03-16T06:42:54.468Z,3.00
2024-03-16T06:45:21.059Z,2.67
2024-03-16T06:47:47.754Z,2.33
2024-03-16T06:50:14.444Z,1.08
2024-03-16T06:52:41.074Z,4.63
2024-03-16T06:55:10.576Z,3.50
2024-03-16T06:57:37.215Z,2.90
2024-03-16T07:00:04.703Z,2.22
2024-03-16T07:02:31.665Z,3.90
2024-03-16T07:04:58.252Z,1.13
2024-03-16T07:07:24.739Z,5.05
2024-03-16T07:09:51.373Z,3.60
2024-03-16T07:12:18.326Z,1.30
2024-03-16T07:14:44.981Z,6.38
2024-03-16T07:17:11.455Z,4.20
2024-03-16T07:19:37.969Z,1.63
2024-03-16T07:22:07.272Z,4.53
2024-03-16T07:24:34.510Z,5.22
2024-03-16T07:27:01.027Z,6.65
2024-03-16T07:29:27.446Z,1.90
2024-03-16T07:31:54.056Z,4.95
2024-03-16T07:34:20.631Z,0.90
2024-03-16T07:36:47.205Z,1.08
2024-03-16T07:39:13.754Z,3.08
2024-03-16T07:41:40.670Z,3.70
2024-03-16T07:44:07.249Z,3.42
2024-03-16T07:46:33.737Z,5.90
2024-03-16T07:49:00.668Z,3.88
2024-03-16T07:51:30.507Z,6.57
2024-03-16T07:53:57.262Z,6.47
2024-03-16T07:56:23.733Z,2.25
2024-03-16T07:58:50.593Z,3.07
2024-03-16T08:01:17.487Z,3.30
2024-03-16T08:03:45.072Z,2.53
2024-03-16T08:06:12.197Z,5.72
2024-03-16T08:08:41.100Z,4.63
2024-03-16T08:11:08.574Z,7.30
2024-03-16T08:13:38.060Z,3.38
2024-03-16T08:16:05.178Z,6.30
2024-03-16T08:18:31.642Z,3.13
2024-03-16T08:21:01.013Z,4.43
2024-03-16T08:23:29.221Z,2.90
2024-03-16T08:25:55.822Z,3.83
2024-03-16T08:28:23.231Z,2.95
2024-03-16T08:30:50.003Z,5.00
2024-03-16T08:33:16.611Z,3.55
2024-03-16T08:35:43.290Z,4.23
2024-03-16T08:38:10.370Z,3.10
2024-03-16T08:40:36.963Z,5.90
2024-03-16T08:43:03.978Z,4.13
2024-03-16T08:45:31.977Z,3.80
2024-03-16T08:47:58.601Z,1.87
2024-03-16T08:50:25.133Z,7.30
2024-03-16T08:52:51.748Z,4.88
2024-03-16T08:55:19.240Z,3.75
2024-03-16T08:57:46.384Z,6.90
2024-03-16T09:00:16.788Z,1.93
2024-03-16T09:02:43.958Z,3.88
2024-03-16T09:05:10.525Z,8.52
2024-03-16T09:07:39.553Z,4.72
2024-03-16T09:10:12.307Z,5.80
2024-03-16T09:12:39.300Z,3.33
2024-03-16T09:15:12.544Z,6.35
2024-03-16T09:17:39.646Z,2.22
2024-03-16T09:20:11.010Z,2.28
2024-03-16T09:22:38.368Z,2.75
2024-03-16T09:25:07.240Z,3.27
2024-03-16T09:27:35.113Z,3.08
2024-03-16T09:30:02.557Z,4.80
2024-03-16T09:32:29.051Z,8.30
2024-03-16T09:34:55.516Z,2.13
2024-03-16T09:37:22.681Z,1.83
2024-03-16T09:39:49.353Z,2.88
2024-03-16T09:42:15.908Z,1.40
